Ankara/Esenboğa International Airport

Airport
ICAO code: 
LTAC
IATA Code: 
ESB
Summary
ICAO Region: 
EUR
Territory: 
Location: 
Esenboğa,
Serving: 
Ankara
Elevation: 
3125 ft
Coordinates: 
Aerial View: 
40° 7' 41.002" N, 32° 59' 42" E
Metar
Observation
LTAC 281650Z 21008KT 190V250 9999 FEW040 SCT100 14/04 Q1014 NOSIG
Station
Ankara / Esenboga
Date/Time
2021-11-28 16:50:00
Wind direction
210°
Wind speed
08 kts
Lowest cloud amount
few clouds
Temperature
14°C
Dew point
4°C
Humidity
50%
QNH
1014 hPa
Weather condition
n/a

Description

International airport serving Ankara.

Climatology

"Continental" Mediterranean climate - a variation fo the Mediterranean Climate with characteristics of a continental climate due to altitude and limited influence of the sea (Köppen climate classification Csa) - cool winters due to altitude, including sporadic snowfalls and minimum temperatures often below freezing. Summer tends to be hot and dry with significant diurnal temperature range.

Runways

Designator Length Width Surface Rops
03L/21R 3750 45 ASP Yes/Yes
03R/21L 3750 60 ASP Yes/Yes
Airport map: 
Aerial View: 

SKYbrary Partners:

Safety knowledge contributed by: